createdAt,value
2022-07-26T00:00:40.852Z,98730.34
2022-07-26T00:03:07.771Z,98719.91
2022-07-26T00:05:37.162Z,98721.06
2022-07-26T00:08:11.097Z,98731.66
2022-07-26T00:10:45.811Z,98734.31
2022-07-26T00:13:13.034Z,98718.41
2022-07-26T00:15:40.129Z,98733.66
2022-07-26T00:18:08.081Z,98726.34
2022-07-26T00:20:39.041Z,98744.56
2022-07-26T00:23:06.165Z,98745.38
2022-07-26T00:25:33.649Z,98751.84
2022-07-26T00:28:00.599Z,98731.63
2022-07-26T00:30:28.758Z,98733.44
2022-07-26T00:32:55.588Z,98758.75
2022-07-26T00:35:22.476Z,98742.72
2022-07-26T00:37:49.345Z,98741.88
2022-07-26T00:40:17.508Z,98731.47
2022-07-26T00:42:45.083Z,98728.47
2022-07-26T00:45:13.509Z,98735.94
2022-07-26T00:47:40.722Z,98740.41
2022-07-26T00:50:12.411Z,98736.59
2022-07-26T00:52:42.047Z,98750.81
2022-07-26T00:55:09.519Z,98754.59
2022-07-26T00:57:36.875Z,98747.16
2022-07-26T01:00:08.047Z,98752.78
2022-07-26T01:02:35.055Z,98747.16
2022-07-26T01:05:02.205Z,98736.25
2022-07-26T01:07:29.719Z,98754.13
2022-07-26T01:09:57.314Z,98757.44
2022-07-26T01:12:24.203Z,98758.59
2022-07-26T01:14:51.176Z,98755.78
2022-07-26T01:17:17.978Z,98752.31
2022-07-26T01:19:44.835Z,98742.88
2022-07-26T01:22:14.534Z,98759.09
2022-07-26T01:24:42.445Z,98753.66
2022-07-26T01:27:09.330Z,98751.50
2022-07-26T01:29:36.607Z,98732.97
2022-07-26T01:32:05.022Z,98745.84
2022-07-26T01:34:32.684Z,98746.19
2022-07-26T01:36:59.865Z,98767.03
2022-07-26T01:39:26.923Z,98756.91
2022-07-26T01:41:54.363Z,98771.91
2022-07-26T01:44:22.887Z,98791.75
2022-07-26T01:46:50.203Z,98781.94
2022-07-26T01:49:17.249Z,98787.00
2022-07-26T01:51:44.286Z,98785.34
2022-07-26T01:54:12.010Z,98786.25
2022-07-26T01:56:39.215Z,98795.03
2022-07-26T01:59:06.057Z,98801.34
2022-07-26T02:01:38.661Z,98774.16
2022-07-26T02:04:07.892Z,98793.19
2022-07-26T02:06:35.096Z,98793.00
2022-07-26T02:09:02.102Z,98798.47
2022-07-26T02:11:29.120Z,98787.88
2022-07-26T02:13:55.920Z,98789.91
2022-07-26T02:16:22.834Z,98764.50
2022-07-26T02:18:49.852Z,98775.72
2022-07-26T02:21:16.698Z,98772.72
2022-07-26T02:23:43.588Z,98780.75
2022-07-26T02:26:10.524Z,98781.88
2022-07-26T02:28:37.339Z,98780.34
2022-07-26T02:31:04.551Z,98787.22
2022-07-26T02:33:31.862Z,98782.47
2022-07-26T02:35:58.691Z,98769.38
2022-07-26T02:38:25.531Z,98763.19
2022-07-26T02:40:52.998Z,98759.34
2022-07-26T02:43:20.265Z,98767.13
2022-07-26T02:46:01.495Z,98772.81
2022-07-26T02:48:30.693Z,98764.53
2022-07-26T02:50:57.664Z,98757.94
2022-07-26T02:53:24.523Z,98759.97
2022-07-26T02:55:51.661Z,98769.91
2022-07-26T02:58:21.348Z,98755.69
2022-07-26T03:00:48.252Z,98782.91
2022-07-26T03:03:15.181Z,98760.31
2022-07-26T03:05:42.128Z,98768.59
2022-07-26T03:08:09.026Z,98761.34
2022-07-26T03:10:35.956Z,98763.09
2022-07-26T03:13:02.877Z,98746.38
2022-07-26T03:15:29.845Z,98743.72
2022-07-26T03:17:56.902Z,98768.75
2022-07-26T03:20:24.019Z,98765.25
2022-07-26T03:22:50.839Z,98773.03
2022-07-26T03:25:17.664Z,98758.47
2022-07-26T03:27:44.489Z,98772.19
2022-07-26T03:30:12.662Z,98773.03
2022-07-26T03:32:39.562Z,98782.47
2022-07-26T03:35:07.985Z,98761.41
2022-07-26T03:37:45.982Z,98775.63
2022-07-26T03:40:15.797Z,98773.78
2022-07-26T03:42:42.725Z,98763.19
2022-07-26T03:45:10.115Z,98784.81
2022-07-26T03:47:37.393Z,98778.19
2022-07-26T03:50:06.103Z,98788.81
2022-07-26T03:52:33.169Z,98786.63
2022-07-26T03:55:00.009Z,98786.25
2022-07-26T03:57:28.430Z,98794.03
2022-07-26T03:59:55.787Z,98791.69
2022-07-26T04:02:22.718Z,98793.53
2022-07-26T04:04:49.572Z,98785.72
2022-07-26T04:07:16.451Z,98784.94
2022-07-26T04:09:43.278Z,98789.38
2022-07-26T04:12:10.229Z,98792.31
2022-07-26T04:14:37.043Z,98781.31
2022-07-26T04:17:03.998Z,98797.50
2022-07-26T04:19:30.871Z,98798.75
2022-07-26T04:21:57.725Z,98795.81
2022-07-26T04:24:25.330Z,98790.44
2022-07-26T04:26:52.725Z,98807.16
2022-07-26T04:29:19.585Z,98784.56
2022-07-26T04:31:46.846Z,98797.44
2022-07-26T04:34:13.656Z,98800.09
2022-07-26T04:36:40.495Z,98782.03
2022-07-26T04:39:07.362Z,98794.91
2022-07-26T04:41:34.192Z,98786.63
2022-07-26T04:44:01.015Z,98794.44
2022-07-26T04:46:27.980Z,98789.09
2022-07-26T04:48:54.919Z,98803.25
2022-07-26T04:51:21.896Z,98796.78
2022-07-26T04:53:48.877Z,98795.28
2022-07-26T04:56:15.691Z,98811.03
2022-07-26T04:58:42.509Z,98812.16
2022-07-26T05:01:10.769Z,98817.50
2022-07-26T05:03:38.930Z,98816.66
2022-07-26T05:06:05.991Z,98822.50
2022-07-26T05:08:32.892Z,98802.41
2022-07-26T05:10:59.834Z,98812.09
2022-07-26T05:13:29.883Z,98829.41
2022-07-26T05:15:59.303Z,98813.31
2022-07-26T05:18:26.530Z,98819.69
2022-07-26T05:20:53.541Z,98826.72
2022-07-26T05:23:20.588Z,98824.38
2022-07-26T05:25:47.970Z,98821.34
2022-07-26T05:28:14.840Z,98810.22
2022-07-26T05:30:41.785Z,98823.63
2022-07-26T05:33:08.664Z,98810.91
2022-07-26T05:35:35.568Z,98816.81
2022-07-26T05:38:02.446Z,98828.97
2022-07-26T05:40:29.433Z,98825.16
2022-07-26T05:42:56.319Z,98820.53
2022-07-26T05:45:23.283Z,98833.81
2022-07-26T05:47:51.456Z,98830.88
2022-07-26T05:50:18.423Z,98823.31
2022-07-26T05:52:45.754Z,98824.69
2022-07-26T05:55:12.591Z,98812.59
2022-07-26T05:57:41.547Z,98826.38
2022-07-26T06:00:10.252Z,98832.81
2022-07-26T06:02:37.202Z,98823.75
2022-07-26T06:05:04.636Z,98824.78
2022-07-26T06:07:31.747Z,98820.94
2022-07-26T06:09:58.753Z,98835.66
2022-07-26T06:12:25.643Z,98824.13
2022-07-26T06:14:52.539Z,98820.88
2022-07-26T06:17:19.454Z,98828.13
2022-07-26T06:19:47.846Z,98821.78
2022-07-26T06:22:15.242Z,98824.75
2022-07-26T06:24:42.077Z,98831.50
2022-07-26T06:27:08.916Z,98831.22
2022-07-26T06:29:35.740Z,98827.06
2022-07-26T06:32:02.732Z,98835.66
2022-07-26T06:34:29.795Z,98833.41
2022-07-26T06:36:56.652Z,98829.56
2022-07-26T06:39:23.501Z,98828.75
2022-07-26T06:41:50.630Z,98838.09
2022-07-26T06:44:17.545Z,98838.63
2022-07-26T06:46:44.405Z,98831.59
2022-07-26T06:49:13.175Z,98842.59
2022-07-26T06:51:40.096Z,98848.19
2022-07-26T06:54:07.187Z,98826.03
2022-07-26T06:56:34.240Z,98826.44
2022-07-26T06:59:04.004Z,98839.75
2022-07-26T07:01:58.084Z,98830.81
2022-07-26T07:04:20.083Z,98849.28
2022-07-26T07:06:46.971Z,98846.25
2022-07-26T07:09:16.399Z,98846.84
2022-07-26T07:11:44.426Z,98834.34
2022-07-26T07:14:11.984Z,98824.75
2022-07-26T07:16:39.083Z,98839.25
2022-07-26T07:19:06.028Z,98839.16
2022-07-26T07:21:33.841Z,98840.53
2022-07-26T07:24:00.766Z,98832.97
2022-07-26T07:26:28.885Z,98834.56
2022-07-26T07:28:55.872Z,98840.13
2022-07-26T07:31:30.643Z,98816.59
2022-07-26T07:34:10.907Z,98828.75
2022-07-26T07:36:38.000Z,98833.88
2022-07-26T07:39:07.556Z,98826.47
2022-07-26T07:41:38.125Z,98833.09
2022-07-26T07:44:08.240Z,98815.75
2022-07-26T07:46:35.316Z,98822.72
2022-07-26T07:49:02.271Z,98825.38
2022-07-26T07:51:29.507Z,98826.59
2022-07-26T07:53:57.953Z,98827.13
2022-07-26T07:56:26.305Z,98825.38
2022-07-26T07:58:53.317Z,98810.16
2022-07-26T08:01:20.374Z,98826.72
2022-07-26T08:03:50.699Z,98815.81
2022-07-26T08:06:18.064Z,98815.00
2022-07-26T08:08:44.894Z,98803.63
2022-07-26T08:11:12.466Z,98816.56
2022-07-26T08:13:40.792Z,98814.78
2022-07-26T08:16:10.303Z,98800.72
2022-07-26T08:18:45.181Z,98815.63
2022-07-26T08:21:22.777Z,98813.03
2022-07-26T08:23:50.572Z,98820.28
2022-07-26T08:26:17.396Z,98813.06
2022-07-26T08:28:48.335Z,98803.13
2022-07-26T08:31:16.770Z,98812.94
2022-07-26T08:33:45.916Z,98810.28
2022-07-26T08:36:17.653Z,98814.09
2022-07-26T08:38:47.646Z,98822.00
2022-07-26T08:41:18.806Z,98805.13
2022-07-26T08:43:53.049Z,98819.44
2022-07-26T08:46:26.380Z,98813.34
2022-07-26T08:48:55.924Z,98808.41
2022-07-26T08:51:25.075Z,98813.09
2022-07-26T08:54:03.745Z,98811.97
2022-07-26T08:56:35.650Z,98813.94
2022-07-26T08:59:19.622Z,98815.28
2022-07-26T09:02:14.239Z,98820.94
2022-07-26T09:04:46.587Z,98822.09
2022-07-26T09:07:17.985Z,98815.31
2022-07-26T09:10:10.311Z,98821.91
2022-07-26T09:12:38.509Z,98804.84
2022-07-26T09:15:09.000Z,98825.22
2022-07-26T09:17:42.701Z,98810.50
2022-07-26T09:20:16.294Z,98820.66
2022-07-26T09:23:07.547Z,98820.47
2022-07-26T09:25:46.074Z,98827.91
2022-07-26T09:28:30.406Z,98833.22
2022-07-26T09:31:04.084Z,98828.25
2022-07-26T09:33:45.419Z,98817.28
2022-07-26T09:36:12.298Z,98834.50
2022-07-26T09:38:51.650Z,98831.69
2022-07-26T09:41:34.027Z,98825.59
2022-07-26T09:44:04.377Z,98827.63
2022-07-26T09:46:35.302Z,98821.69
2022-07-26T09:49:19.540Z,98818.88
2022-07-26T09:51:50.010Z,98810.69
2022-07-26T09:54:35.469Z,98780.91
2022-07-26T09:57:03.240Z,98822.81
2022-07-26T09:59:30.811Z,98812.41
2022-07-26T10:01:59.815Z,98823.84
2022-07-26T10:04:27.262Z,98835.94
2022-07-26T10:06:54.731Z,98838.91
2022-07-26T10:09:25.370Z,98827.81
2022-07-26T10:12:08.945Z,98829.28
2022-07-26T10:14:46.896Z,98839.75
2022-07-26T10:17:30.854Z,98840.91
2022-07-26T10:20:09.375Z,98820.69
2022-07-26T10:22:47.179Z,98837.25
2022-07-26T10:25:20.236Z,98829.28
2022-07-26T10:27:57.733Z,98830.97
2022-07-26T10:30:33.888Z,98839.22
2022-07-26T10:33:07.541Z,98833.97
2022-07-26T10:35:43.420Z,98840.75
2022-07-26T10:38:25.682Z,98835.25
2022-07-26T10:41:06.113Z,98847.38
2022-07-26T10:43:42.247Z,98857.81
2022-07-26T10:46:18.647Z,98839.59
2022-07-26T10:49:00.106Z,98836.25
2022-07-26T10:51:32.106Z,98839.59
2022-07-26T10:54:05.301Z,98844.56
2022-07-26T10:56:33.699Z,98839.56
2022-07-26T10:59:01.975Z,98847.84
2022-07-26T11:01:41.131Z,98840.06
2022-07-26T11:04:23.513Z,98851.44
2022-07-26T11:06:50.590Z,98820.63
2022-07-26T11:09:21.021Z,98844.97
2022-07-26T11:11:48.651Z,98843.44
2022-07-26T11:14:18.121Z,98836.66
2022-07-26T11:16:50.331Z,98840.34
2022-07-26T11:19:26.369Z,98836.53
2022-07-26T11:21:59.839Z,98828.88
2022-07-26T11:24:28.022Z,98823.34
2022-07-26T11:26:55.780Z,98838.97
2022-07-26T11:29:41.261Z,98841.50
2022-07-26T11:32:24.619Z,98836.81
2022-07-26T11:35:03.313Z,98828.09
2022-07-26T11:37:30.254Z,98825.91
2022-07-26T11:39:57.228Z,98827.47
2022-07-26T11:42:24.102Z,98817.03
2022-07-26T11:44:51.227Z,98809.50
2022-07-26T11:47:25.244Z,98831.63
2022-07-26T11:52:40.912Z,98839.50
2022-07-26T11:55:08.809Z,98823.38
2022-07-26T11:57:35.854Z,98831.41
2022-07-26T12:00:04.336Z,98819.44
2022-07-26T12:02:31.508Z,98820.88
2022-07-26T12:05:20.761Z,98822.84
2022-07-26T12:08:04.985Z,98826.19
2022-07-26T12:10:32.096Z,98835.25
2022-07-26T12:13:14.552Z,98837.25
2022-07-26T12:15:46.399Z,98827.47
2022-07-26T12:18:26.343Z,98824.16
2022-07-26T12:21:12.479Z,98814.81
2022-07-26T12:23:48.419Z,98816.06
2022-07-26T12:26:30.746Z,98820.91
2022-07-26T12:28:59.797Z,98818.06
2022-07-26T12:31:32.588Z,98809.41
2022-07-26T12:34:00.356Z,98814.28
2022-07-26T12:36:29.563Z,98802.72
2022-07-26T12:39:00.950Z,98803.31
2022-07-26T12:41:37.194Z,98804.47
2022-07-26T12:44:06.571Z,98808.56
2022-07-26T12:46:35.840Z,98813.69
2022-07-26T12:49:03.954Z,98808.38
2022-07-26T12:51:30.885Z,98806.88
2022-07-26T12:53:57.876Z,98813.03
2022-07-26T12:56:24.838Z,98822.97
2022-07-26T12:58:52.983Z,98811.94
2022-07-26T13:01:19.875Z,98798.47
2022-07-26T13:03:46.737Z,98797.94
2022-07-26T13:06:13.661Z,98801.44
2022-07-26T13:08:40.545Z,98811.50
2022-07-26T13:11:07.407Z,98805.97
2022-07-26T13:13:34.262Z,98786.50
2022-07-26T13:16:01.090Z,98774.16
2022-07-26T13:18:27.916Z,98793.78
2022-07-26T13:20:54.746Z,98801.16
2022-07-26T13:23:25.414Z,98778.72
2022-07-26T13:25:53.790Z,98782.84
2022-07-26T13:28:21.504Z,98774.47
2022-07-26T13:30:48.372Z,98782.31
2022-07-26T13:33:17.539Z,98775.50
2022-07-26T13:35:44.331Z,98776.94
2022-07-26T13:38:11.274Z,98762.44
2022-07-26T13:40:38.244Z,98786.06
2022-07-26T13:43:05.497Z,98785.34
2022-07-26T13:45:32.325Z,98779.16
2022-07-26T13:47:59.747Z,98772.34
2022-07-26T13:50:30.070Z,98780.78
2022-07-26T13:52:57.399Z,98760.34
2022-07-26T13:55:25.558Z,98765.38
2022-07-26T13:57:56.746Z,98774.34
2022-07-26T14:00:26.517Z,98773.94
2022-07-26T14:02:54.183Z,98763.34
2022-07-26T14:05:21.215Z,98752.16
2022-07-26T14:07:48.118Z,98760.53
2022-07-26T14:10:14.976Z,98765.84
2022-07-26T14:12:41.931Z,98762.75
2022-07-26T14:15:16.610Z,98786.47
2022-07-26T14:17:47.031Z,98779.03
2022-07-26T14:20:14.805Z,98770.78
2022-07-26T14:22:41.791Z,98772.50
2022-07-26T14:25:09.253Z,98754.66
2022-07-26T14:27:36.066Z,98766.38
2022-07-26T14:30:04.667Z,98775.34
2022-07-26T14:32:31.483Z,98764.03
2022-07-26T14:34:58.369Z,98783.31
2022-07-26T14:37:44.015Z,98768.13
2022-07-26T14:40:16.899Z,98779.72
2022-07-26T14:42:45.986Z,98783.16
2022-07-26T14:45:14.491Z,98776.09
2022-07-26T14:47:41.975Z,98771.81
2022-07-26T14:50:11.175Z,98773.09
2022-07-26T14:52:48.253Z,98755.09
2022-07-26T14:55:20.433Z,98750.53
2022-07-26T14:57:51.473Z,98774.72
2022-07-26T15:00:18.545Z,98765.84
2022-07-26T15:02:48.169Z,98765.00
2022-07-26T15:05:17.007Z,98758.94
2022-07-26T15:07:44.552Z,98778.25
2022-07-26T15:10:13.666Z,98763.63
2022-07-26T15:12:41.203Z,98754.00
2022-07-26T15:15:09.658Z,98744.84
2022-07-26T15:17:37.484Z,98758.41
2022-07-26T15:20:05.917Z,98740.34
2022-07-26T15:22:32.774Z,98744.03
2022-07-26T15:24:59.619Z,98753.38
2022-07-26T15:27:26.449Z,98753.94
2022-07-26T15:29:53.347Z,98741.38
2022-07-26T15:32:21.157Z,98750.25
2022-07-26T15:34:48.141Z,98745.75
2022-07-26T15:37:14.990Z,98755.94
2022-07-26T15:39:41.920Z,98749.03
2022-07-26T15:42:09.356Z,98733.19
2022-07-26T15:44:41.119Z,98738.13
2022-07-26T15:47:08.297Z,98738.50
2022-07-26T15:49:40.308Z,98736.03
2022-07-26T15:52:10.660Z,98733.56
2022-07-26T15:54:37.950Z,98730.31
2022-07-26T15:57:04.857Z,98734.97
2022-07-26T15:59:31.676Z,98736.75
2022-07-26T16:01:58.662Z,98730.59
2022-07-26T16:04:25.524Z,98727.00
2022-07-26T16:06:52.445Z,98743.81
2022-07-26T16:09:19.845Z,98726.06
2022-07-26T16:11:48.680Z,98728.78
2022-07-26T16:14:17.002Z,98710.50
2022-07-26T16:16:44.651Z,98717.50
2022-07-26T16:19:12.346Z,98728.13
2022-07-26T16:21:40.465Z,98725.91
2022-07-26T16:24:08.560Z,98724.25
2022-07-26T16:26:36.312Z,98724.97
2022-07-26T16:29:04.408Z,98724.03
2022-07-26T16:31:32.509Z,98717.66
2022-07-26T16:33:59.482Z,98719.59
2022-07-26T16:36:26.362Z,98709.03
2022-07-26T16:38:53.349Z,98702.16
2022-07-26T16:41:20.260Z,98709.97
2022-07-26T16:43:47.131Z,98714.00
2022-07-26T16:46:14.042Z,98714.78
2022-07-26T16:48:41.037Z,98714.66
2022-07-26T16:51:07.901Z,98713.13
2022-07-26T16:53:34.812Z,98701.91
2022-07-26T16:56:01.645Z,98689.47
2022-07-26T16:58:28.485Z,98712.19
2022-07-26T17:00:55.486Z,98701.16
2022-07-26T17:03:23.563Z,98709.06
2022-07-26T17:05:50.856Z,98710.31
2022-07-26T17:08:17.989Z,98686.28
2022-07-26T17:10:45.177Z,98713.69
2022-07-26T17:13:11.998Z,98710.13
2022-07-26T17:15:38.906Z,98707.91
2022-07-26T17:18:05.829Z,98707.06
2022-07-26T17:20:32.641Z,98721.81
2022-07-26T17:22:59.565Z,98714.03
2022-07-26T17:25:26.496Z,98706.31
2022-07-26T17:27:53.312Z,98708.16
2022-07-26T17:30:20.487Z,98710.16
2022-07-26T17:32:47.477Z,98705.50
2022-07-26T17:35:14.513Z,98704.13
2022-07-26T17:37:41.593Z,98708.25
2022-07-26T17:40:09.767Z,98703.88
2022-07-26T17:42:37.622Z,98685.19
2022-07-26T17:45:06.704Z,98715.16
2022-07-26T17:47:33.538Z,98701.03
2022-07-26T17:50:34.145Z,98704.34
2022-07-26T17:52:53.744Z,98692.69
2022-07-26T17:55:21.653Z,98706.72
2022-07-26T17:57:50.054Z,98708.06
2022-07-26T18:00:22.814Z,98712.28
2022-07-26T18:02:49.716Z,98708.84
2022-07-26T18:05:18.289Z,98711.00
2022-07-26T18:07:45.351Z,98691.84
2022-07-26T18:10:14.222Z,98702.25
2022-07-26T18:12:41.309Z,98691.00
2022-07-26T18:15:08.895Z,98706.31
2022-07-26T18:17:36.234Z,98691.09
2022-07-26T18:20:04.581Z,98693.94
2022-07-26T18:22:31.497Z,98691.34
2022-07-26T18:24:58.337Z,98696.56
2022-07-26T18:27:28.040Z,98711.03
2022-07-26T18:29:56.299Z,98706.25
2022-07-26T18:32:23.907Z,98698.72
2022-07-26T18:34:52.577Z,98709.97
2022-07-26T18:37:20.631Z,98702.72
2022-07-26T18:39:48.386Z,98691.03
2022-07-26T18:42:15.465Z,98716.66
2022-07-26T18:44:42.311Z,98679.31
2022-07-26T18:47:09.711Z,98711.25
2022-07-26T18:49:36.741Z,98695.06
2022-07-26T18:52:08.352Z,98697.84
2022-07-26T18:54:35.856Z,98707.97
2022-07-26T18:57:02.695Z,98714.47
2022-07-26T18:59:30.874Z,98703.25
2022-07-26T19:01:59.066Z,98702.28
2022-07-26T19:04:26.477Z,98710.41
2022-07-26T19:06:53.408Z,98720.19
2022-07-26T19:09:20.415Z,98725.13
2022-07-26T19:11:47.304Z,98731.47
2022-07-26T19:14:14.194Z,98723.38
2022-07-26T19:16:41.026Z,98739.28
2022-07-26T19:19:07.940Z,98737.50
2022-07-26T19:21:34.869Z,98740.16
2022-07-26T19:24:01.759Z,98735.72
2022-07-26T19:26:29.698Z,98757.06
2022-07-26T19:28:56.533Z,98744.66
2022-07-26T19:31:23.840Z,98748.47
2022-07-26T19:33:50.852Z,98756.41
2022-07-26T19:36:26.155Z,98771.84
2022-07-26T19:38:56.581Z,98756.25
2022-07-26T19:41:24.893Z,98777.59
2022-07-26T19:43:51.723Z,98772.81
2022-07-26T19:46:18.666Z,98774.84
2022-07-26T19:48:45.605Z,98786.91
2022-07-26T19:51:12.477Z,98780.94
2022-07-26T19:53:39.322Z,98777.66
2022-07-26T19:56:06.416Z,98778.97
2022-07-26T19:58:33.359Z,98785.75
2022-07-26T20:01:00.162Z,98795.84
2022-07-26T20:03:26.986Z,98787.75
2022-07-26T20:05:55.605Z,98788.59
2022-07-26T20:08:22.520Z,98780.63
2022-07-26T20:10:49.371Z,98784.28
2022-07-26T20:13:16.474Z,98793.19
2022-07-26T20:15:43.626Z,98797.19
2022-07-26T20:18:11.111Z,98803.78
2022-07-26T20:20:37.919Z,98798.47
2022-07-26T20:23:07.261Z,98802.41
2022-07-26T20:25:34.411Z,98798.75
2022-07-26T20:28:01.248Z,98790.97
2022-07-26T20:30:28.293Z,98806.38
2022-07-26T20:32:55.539Z,98789.47
2022-07-26T20:35:22.462Z,98784.19
2022-07-26T20:37:49.460Z,98804.38
2022-07-26T20:40:18.103Z,98802.84
2022-07-26T20:42:45.514Z,98799.19
2022-07-26T20:45:14.363Z,98788.78
2022-07-26T20:47:41.689Z,98787.75
2022-07-26T20:50:12.858Z,98801.00
2022-07-26T20:52:40.037Z,98805.31
2022-07-26T20:55:08.180Z,98814.22
2022-07-26T20:57:35.406Z,98815.53
2022-07-26T21:00:05.864Z,98806.59
2022-07-26T21:02:32.783Z,98801.22
2022-07-26T21:04:59.683Z,98797.72
2022-07-26T21:07:53.545Z,98799.72
2022-07-26T21:10:13.815Z,98807.75
2022-07-26T21:12:40.665Z,98799.13
2022-07-26T21:15:07.949Z,98817.78
2022-07-26T21:17:35.437Z,98797.38
2022-07-26T21:20:04.222Z,98806.28
2022-07-26T21:22:31.202Z,98805.91
2022-07-26T21:24:58.107Z,98807.25
2022-07-26T21:27:25.041Z,98797.59
2022-07-26T21:29:51.955Z,98814.81
2022-07-26T21:32:18.786Z,98803.50
2022-07-26T21:34:45.643Z,98825.00
2022-07-26T21:37:12.532Z,98817.25
2022-07-26T21:39:39.350Z,98819.38
2022-07-26T21:42:06.197Z,98811.59
2022-07-26T21:44:33.236Z,98818.19
2022-07-26T21:47:00.239Z,98812.44
2022-07-26T21:49:27.223Z,98817.03
2022-07-26T21:51:54.091Z,98825.59
2022-07-26T21:54:20.934Z,98819.25
2022-07-26T21:56:47.747Z,98828.16
2022-07-26T21:59:15.007Z,98825.72
2022-07-26T22:01:42.703Z,98807.50
2022-07-26T22:04:10.188Z,98813.63
2022-07-26T22:06:37.870Z,98806.56
2022-07-26T22:09:05.387Z,98806.59
2022-07-26T22:11:32.278Z,98828.16
2022-07-26T22:13:59.154Z,98831.41
2022-07-26T22:16:26.055Z,98828.09
2022-07-26T22:18:52.934Z,98825.38
2022-07-26T22:21:19.837Z,98833.66
2022-07-26T22:23:46.900Z,98819.03
2022-07-26T22:26:14.381Z,98808.88
2022-07-26T22:28:41.228Z,98823.94
2022-07-26T22:31:08.093Z,98823.84
2022-07-26T22:33:34.925Z,98829.09
2022-07-26T22:36:01.741Z,98820.53
2022-07-26T22:38:28.884Z,98840.22
2022-07-26T22:40:55.714Z,98820.59
2022-07-26T22:43:22.551Z,98827.53
2022-07-26T22:45:49.440Z,98823.41
2022-07-26T22:48:16.495Z,98832.69
2022-07-26T22:50:44.167Z,98812.75
2022-07-26T22:53:11.056Z,98822.06
2022-07-26T22:55:38.038Z,98820.91
2022-07-26T22:58:04.998Z,98825.66
2022-07-26T23:00:31.918Z,98822.50
2022-07-26T23:02:58.735Z,98832.31
2022-07-26T23:05:35.468Z,98810.59
2022-07-26T23:08:36.647Z,98838.00
2022-07-26T23:10:59.463Z,98828.59
2022-07-26T23:13:26.540Z,98815.63
2022-07-26T23:15:58.101Z,98833.19
2022-07-26T23:18:28.845Z,98835.41
2022-07-26T23:20:55.699Z,98828.09
2022-07-26T23:23:22.646Z,98841.28
2022-07-26T23:25:52.219Z,98834.75
2022-07-26T23:28:35.668Z,98827.00
2022-07-26T23:31:10.136Z,98826.59
2022-07-26T23:33:52.516Z,98834.91
2022-07-26T23:36:23.851Z,98840.47
2022-07-26T23:38:50.863Z,98816.50
2022-07-26T23:41:18.920Z,98842.41
2022-07-26T23:43:45.779Z,98844.63
2022-07-26T23:46:12.686Z,98840.59
2022-07-26T23:48:39.707Z,98829.28
2022-07-26T23:51:06.623Z,98844.53
2022-07-26T23:53:33.465Z,98846.41
2022-07-26T23:56:00.299Z,98827.47
2022-07-26T23:58:27.103Z,98831.19
